createdAt,value
2018-07-03T00:01:08.566Z,17.97
2018-07-03T00:03:37.126Z,18.00
2018-07-03T00:06:05.690Z,17.63
2018-07-03T00:08:34.226Z,18.37
2018-07-03T00:11:02.793Z,17.57
2018-07-03T00:13:31.333Z,17.87
2018-07-03T00:16:00.126Z,17.83
2018-07-03T00:18:28.983Z,17.60
2018-07-03T00:20:57.845Z,17.20
2018-07-03T00:23:26.712Z,16.20
2018-07-03T00:25:55.579Z,17.27
2018-07-03T00:28:24.421Z,16.70
2018-07-03T00:30:53.263Z,16.10
2018-07-03T00:33:22.089Z,16.33
2018-07-03T00:35:50.960Z,16.57
2018-07-03T00:38:19.773Z,15.30
2018-07-03T00:40:48.583Z,15.70
2018-07-03T00:43:17.436Z,16.17
2018-07-03T00:45:46.283Z,16.33
2018-07-03T00:48:15.113Z,15.80
2018-07-03T00:50:43.948Z,15.20
2018-07-03T00:53:12.868Z,15.77
2018-07-03T00:55:41.476Z,15.53
2018-07-03T00:58:10.023Z,16.13
2018-07-03T01:00:38.595Z,16.93
2018-07-03T01:03:07.152Z,15.87
2018-07-03T01:05:35.720Z,17.37
2018-07-03T01:08:04.275Z,15.83
2018-07-03T01:10:32.825Z,16.40
2018-07-03T01:13:01.363Z,16.97
2018-07-03T01:15:29.902Z,17.23
2018-07-03T01:17:58.658Z,15.90
2018-07-03T01:20:27.497Z,16.00
2018-07-03T01:22:57.012Z,16.17
2018-07-03T01:25:26.004Z,15.53
2018-07-03T01:27:54.655Z,16.27
2018-07-03T01:30:23.235Z,16.97
2018-07-03T01:32:51.770Z,16.13
2018-07-03T01:35:20.277Z,15.97
2018-07-03T01:37:48.820Z,17.27
2018-07-03T01:40:17.415Z,15.73
2018-07-03T01:42:45.943Z,16.43
2018-07-03T01:45:14.493Z,16.80
2018-07-03T01:47:43.243Z,15.97
2018-07-03T01:50:12.163Z,16.90
2018-07-03T01:52:41.021Z,15.97
2018-07-03T01:55:09.867Z,16.30
2018-07-03T01:57:38.745Z,17.20
2018-07-03T02:00:07.627Z,16.67
2018-07-03T02:02:36.253Z,16.77
2018-07-03T02:05:04.635Z,17.07
2018-07-03T02:07:33.205Z,17.03
2018-07-03T02:10:01.741Z,16.43
2018-07-03T02:12:30.288Z,16.83
2018-07-03T02:14:58.807Z,16.40
2018-07-03T02:17:27.345Z,17.23
2018-07-03T02:19:55.870Z,16.93
2018-07-03T02:22:25.747Z,16.13
2018-07-03T02:24:54.485Z,16.33
2018-07-03T02:27:23.010Z,16.97
2018-07-03T02:29:51.510Z,16.70
2018-07-03T02:32:20.255Z,16.13
2018-07-03T02:34:49.085Z,17.47
2018-07-03T02:37:17.974Z,17.40
2018-07-03T02:39:46.873Z,17.63
2018-07-03T02:42:15.803Z,17.77
2018-07-03T02:44:44.695Z,17.87
2018-07-03T02:47:13.536Z,17.87
2018-07-03T02:49:42.357Z,19.10
2018-07-03T02:52:11.215Z,17.93
2018-07-03T02:54:40.156Z,19.23
2018-07-03T02:57:09.048Z,17.73
2018-07-03T02:59:37.923Z,19.10
2018-07-03T03:02:06.873Z,19.00
2018-07-03T03:04:35.725Z,18.53
2018-07-03T03:07:04.708Z,18.70
2018-07-03T03:09:33.594Z,19.87
2018-07-03T03:12:02.481Z,20.07
2018-07-03T03:14:31.346Z,20.07
2018-07-03T03:17:00.208Z,18.33
2018-07-03T03:19:29.051Z,20.80
2018-07-03T03:21:57.676Z,20.53
2018-07-03T03:24:26.200Z,19.83
2018-07-03T03:26:54.731Z,19.97
2018-07-03T03:29:23.123Z,20.80
2018-07-03T03:31:51.853Z,21.23
2018-07-03T03:34:20.708Z,20.67
2018-07-03T03:36:49.598Z,21.80
2018-07-03T03:39:18.531Z,21.07
2018-07-03T03:41:47.473Z,21.03
2018-07-03T03:44:16.394Z,20.80
2018-07-03T03:46:45.283Z,21.23
2018-07-03T03:49:14.160Z,21.47
2018-07-03T03:51:43.035Z,21.27
2018-07-03T03:54:11.898Z,20.53
2018-07-03T03:56:40.804Z,22.17
2018-07-03T03:59:09.704Z,21.83
2018-07-03T04:01:38.316Z,20.63
2018-07-03T04:04:06.831Z,21.50
2018-07-03T04:06:35.490Z,20.47
2018-07-03T04:09:06.719Z,21.87
2018-07-03T04:11:35.711Z,21.03
2018-07-03T04:14:04.823Z,21.53
2018-07-03T04:16:33.736Z,22.10
2018-07-03T04:19:02.583Z,21.40
2018-07-03T04:21:31.428Z,21.30
2018-07-03T04:24:00.255Z,21.83
2018-07-03T04:26:29.133Z,21.30
2018-07-03T04:28:57.976Z,21.30
2018-07-03T04:31:26.820Z,20.83
2018-07-03T04:33:55.483Z,20.70
2018-07-03T04:36:24.007Z,20.83
2018-07-03T04:38:52.538Z,19.97
2018-07-03T04:41:20.928Z,20.33
2018-07-03T04:43:49.733Z,20.20
2018-07-03T04:46:18.577Z,19.40
2018-07-03T04:48:47.428Z,20.40
2018-07-03T04:51:16.263Z,20.77
2018-07-03T04:53:44.906Z,19.73
2018-07-03T04:56:13.450Z,20.37
2018-07-03T04:58:41.971Z,19.23
2018-07-03T05:01:10.485Z,19.70
2018-07-03T05:03:39.303Z,19.53
2018-07-03T05:06:08.220Z,18.23
2018-07-03T05:08:37.095Z,19.37
2018-07-03T05:11:06.056Z,19.40
2018-07-03T05:13:34.951Z,20.03
2018-07-03T05:16:03.818Z,18.20
2018-07-03T05:18:32.738Z,18.73
2018-07-03T05:21:01.614Z,18.47
2018-07-03T05:23:30.483Z,19.20
2018-07-03T05:25:59.098Z,17.50
2018-07-03T05:28:27.664Z,17.90
2018-07-03T05:30:56.248Z,18.33
2018-07-03T05:33:24.953Z,18.93
2018-07-03T05:35:53.441Z,17.80
2018-07-03T05:38:22.007Z,17.60
2018-07-03T05:40:50.516Z,18.27
2018-07-03T05:43:19.058Z,18.00
2018-07-03T05:45:47.821Z,17.80
2018-07-03T05:48:16.672Z,19.17
2018-07-03T05:50:45.571Z,20.70
2018-07-03T05:53:14.486Z,22.23
2018-07-03T05:55:43.439Z,54.07
2018-07-03T05:58:12.363Z,34.80
2018-07-03T06:00:41.332Z,26.20
2018-07-03T06:03:10.261Z,29.30
2018-07-03T06:05:39.204Z,34.53
2018-07-03T06:08:08.099Z,30.63
2018-07-03T06:10:37.029Z,23.60
2018-07-03T06:13:06.076Z,20.20
2018-07-03T06:15:35.071Z,17.80
2018-07-03T06:18:03.764Z,18.60
2018-07-03T06:20:32.458Z,17.47
2018-07-03T06:23:01.093Z,17.43
2018-07-03T06:25:29.671Z,19.10
2018-07-03T06:27:58.606Z,18.57
2018-07-03T06:30:27.169Z,17.87
2018-07-03T06:32:55.629Z,17.63
2018-07-03T06:35:24.662Z,17.47
2018-07-03T06:37:53.266Z,17.23
2018-07-03T06:40:22.381Z,17.47
2018-07-03T06:42:50.976Z,17.13
2018-07-03T06:45:19.569Z,16.83
2018-07-03T06:47:50.007Z,16.60
2018-07-03T06:50:18.956Z,17.17
2018-07-03T06:52:47.989Z,16.57
2018-07-03T06:55:16.891Z,16.47
2018-07-03T06:57:45.995Z,16.37
2018-07-03T07:00:14.717Z,15.73
2018-07-03T07:02:43.323Z,15.77
2018-07-03T07:05:11.861Z,15.73
2018-07-03T07:07:40.524Z,15.40
2018-07-03T07:10:36.169Z,16.48
2018-07-03T07:13:05.029Z,16.10
2018-07-03T07:15:33.729Z,16.30
2018-07-03T07:18:02.431Z,16.10
2018-07-03T07:20:31.155Z,15.30
2018-07-03T07:22:59.961Z,15.80
2018-07-03T07:25:28.869Z,15.28
2018-07-03T07:27:57.777Z,14.93
2018-07-03T07:30:26.706Z,14.85
2018-07-03T07:32:55.444Z,14.40
2018-07-03T07:35:24.134Z,14.73
2018-07-03T07:37:52.944Z,14.43
2018-07-03T07:40:21.607Z,13.55
2018-07-03T07:42:50.604Z,13.88
2018-07-03T07:45:19.564Z,14.33
2018-07-03T07:47:48.671Z,13.25
2018-07-03T07:50:17.533Z,14.33
2018-07-03T07:52:46.298Z,13.55
2018-07-03T07:55:16.140Z,14.33
2018-07-03T07:57:45.179Z,13.28
2018-07-03T08:00:14.325Z,13.55
2018-07-03T08:02:43.031Z,13.78
2018-07-03T08:05:11.774Z,13.32
2018-07-03T08:07:40.415Z,13.95
2018-07-03T08:10:09.121Z,13.62
2018-07-03T08:12:38.149Z,13.65
2018-07-03T08:15:07.169Z,13.28
2018-07-03T08:17:35.884Z,14.00
2018-07-03T08:20:04.910Z,13.90
2018-07-03T08:22:33.906Z,14.35
2018-07-03T08:25:02.928Z,13.68
2018-07-03T08:27:31.872Z,14.07
2018-07-03T08:30:00.888Z,14.03
2018-07-03T08:32:29.654Z,13.10
2018-07-03T08:34:58.376Z,12.50
2018-07-03T08:37:27.136Z,13.35
2018-07-03T08:39:55.843Z,13.08
2018-07-03T08:42:24.489Z,12.78
2018-07-03T08:44:53.174Z,11.18
2018-07-03T08:47:21.846Z,12.05
2018-07-03T08:49:50.501Z,12.15
2018-07-03T08:52:19.196Z,12.40
2018-07-03T08:54:48.143Z,12.30
2018-07-03T08:57:17.129Z,10.85
2018-07-03T08:59:46.024Z,11.88
2018-07-03T09:02:15.058Z,11.30
2018-07-03T09:04:44.023Z,11.40
2018-07-03T09:07:12.907Z,10.75
2018-07-03T09:09:41.871Z,10.82
2018-07-03T09:12:10.876Z,10.00
2018-07-03T09:14:39.801Z,11.43
2018-07-03T09:17:14.354Z,13.30
2018-07-03T09:19:43.328Z,10.80
2018-07-03T09:22:12.049Z,11.33
2018-07-03T09:24:40.888Z,10.95
2018-07-03T09:27:09.598Z,10.30
2018-07-03T09:29:38.263Z,11.05
2018-07-03T09:32:07.138Z,14.78
2018-07-03T09:34:36.033Z,11.93
2018-07-03T09:37:05.271Z,11.68
2018-07-03T09:39:34.201Z,11.33
2018-07-03T09:42:02.946Z,11.75
2018-07-03T09:44:32.115Z,11.63
2018-07-03T09:47:00.861Z,11.95
2018-07-03T09:49:29.533Z,11.40
2018-07-03T09:51:58.278Z,10.80
2018-07-03T09:54:26.904Z,10.75
2018-07-03T09:56:55.514Z,10.75
2018-07-03T09:59:24.146Z,10.38
2018-07-03T10:01:52.961Z,10.28
2018-07-03T10:04:21.666Z,10.68
2018-07-03T10:06:50.325Z,10.38
2018-07-03T10:09:18.989Z,10.78
2018-07-03T10:11:47.699Z,10.68
2018-07-03T10:14:16.336Z,11.20
2018-07-03T10:16:44.993Z,11.00
2018-07-03T10:19:13.663Z,10.80
2018-07-03T10:21:42.366Z,10.95
2018-07-03T10:24:11.020Z,10.45
2018-07-03T10:26:39.689Z,11.30
2018-07-03T10:29:08.456Z,10.45
2018-07-03T10:31:37.264Z,10.82
2018-07-03T10:34:06.196Z,10.32
2018-07-03T10:36:35.089Z,10.53
2018-07-03T10:39:06.513Z,10.05
2018-07-03T10:41:35.311Z,9.43
2018-07-03T10:44:04.395Z,9.45
2018-07-03T10:46:33.086Z,10.03
2018-07-03T10:49:01.749Z,9.15
2018-07-03T10:51:30.591Z,9.85
2018-07-03T10:53:59.768Z,9.73
2018-07-03T10:56:28.664Z,8.83
2018-07-03T10:58:57.638Z,9.30
2018-07-03T11:01:26.563Z,8.58
2018-07-03T11:03:55.571Z,8.55
2018-07-03T11:06:24.531Z,8.18
2018-07-03T11:08:53.518Z,8.73
2018-07-03T11:11:22.459Z,8.75
2018-07-03T11:13:51.531Z,9.10
2018-07-03T11:16:20.483Z,8.65
2018-07-03T11:18:49.406Z,8.05
2018-07-03T11:21:18.854Z,8.40
2018-07-03T11:23:50.184Z,8.15
2018-07-03T11:26:18.971Z,8.33
2018-07-03T11:28:47.697Z,8.53
2018-07-03T11:31:16.291Z,8.25
2018-07-03T11:33:44.991Z,8.35
2018-07-03T11:36:13.583Z,8.55
2018-07-03T11:38:42.383Z,8.15
2018-07-03T11:41:11.082Z,8.08
2018-07-03T11:43:40.226Z,7.60
2018-07-03T11:46:09.162Z,7.90
2018-07-03T11:48:38.469Z,8.08
2018-07-03T11:51:07.256Z,7.72
2018-07-03T11:53:36.917Z,8.43
2018-07-03T11:56:05.918Z,9.03
2018-07-03T11:58:35.624Z,7.83
2018-07-03T12:01:04.604Z,8.30
2018-07-03T12:03:33.377Z,8.35
2018-07-03T12:06:02.639Z,8.23
2018-07-03T12:08:31.399Z,7.85
2018-07-03T12:11:00.968Z,8.48
2018-07-03T12:13:30.748Z,7.83
2018-07-03T12:15:59.779Z,8.03
2018-07-03T12:18:39.836Z,7.58
2018-07-03T12:21:09.231Z,8.68
2018-07-03T12:23:38.679Z,7.20
2018-07-03T12:26:07.887Z,7.92
2018-07-03T12:28:42.491Z,7.95
2018-07-03T12:31:11.925Z,7.78
2018-07-03T12:33:40.623Z,8.48
2018-07-03T12:36:10.180Z,7.53
2018-07-03T12:38:38.911Z,7.78
2018-07-03T12:41:07.872Z,7.65
2018-07-03T12:43:36.826Z,7.70
2018-07-03T12:46:05.969Z,8.15
2018-07-03T12:48:35.074Z,8.10
2018-07-03T12:51:04.749Z,7.58
2018-07-03T12:53:33.850Z,7.95
2018-07-03T12:56:02.525Z,7.47
2018-07-03T12:58:31.251Z,7.80
2018-07-03T13:00:59.948Z,7.87
2018-07-03T13:03:28.588Z,8.35
2018-07-03T13:05:57.352Z,8.03
2018-07-03T13:08:26.094Z,8.03
2018-07-03T13:10:57.362Z,7.25
2018-07-03T13:13:26.056Z,7.90
2018-07-03T13:15:54.857Z,7.75
2018-07-03T13:18:23.970Z,7.90
2018-07-03T13:20:54.159Z,7.75
2018-07-03T13:23:24.167Z,7.85
2018-07-03T13:25:53.376Z,7.80
2018-07-03T13:28:22.491Z,8.00
2018-07-03T13:30:51.634Z,8.23
2018-07-03T13:33:22.499Z,8.30
2018-07-03T13:35:51.463Z,7.97
2018-07-03T13:38:20.961Z,8.03
2018-07-03T13:40:49.991Z,8.25
2018-07-03T13:43:24.502Z,8.20
2018-07-03T13:45:53.599Z,7.80
2018-07-03T13:48:22.729Z,8.30
2018-07-03T13:50:51.244Z,7.30
2018-07-03T13:53:20.144Z,8.10
2018-07-03T13:55:48.873Z,7.42
2018-07-03T13:58:17.577Z,7.75
2018-07-03T14:00:46.494Z,8.55
2018-07-03T14:03:15.548Z,7.60
2018-07-03T14:05:44.496Z,7.90
2018-07-03T14:08:13.392Z,8.13
2018-07-03T14:10:42.212Z,7.87
2018-07-03T14:13:12.337Z,7.62
2018-07-03T14:15:40.959Z,7.72
2018-07-03T14:18:09.634Z,7.78
2018-07-03T14:20:38.578Z,8.00
2018-07-03T14:23:07.513Z,7.55
2018-07-03T14:25:36.456Z,7.45
2018-07-03T14:28:05.405Z,7.75
2018-07-03T14:30:34.820Z,8.00
2018-07-03T14:33:03.459Z,7.90
2018-07-03T14:35:32.125Z,8.28
2018-07-03T14:38:00.564Z,7.45
2018-07-03T14:40:29.416Z,7.65
2018-07-03T14:42:58.366Z,7.65
2018-07-03T14:45:27.336Z,7.53
2018-07-03T14:47:56.234Z,7.08
2018-07-03T14:50:24.931Z,8.00
2018-07-03T14:52:53.561Z,8.20
2018-07-03T14:55:22.199Z,7.47
2018-07-03T14:57:50.756Z,8.43
2018-07-03T15:00:19.604Z,7.55
2018-07-03T15:02:48.539Z,8.05
2018-07-03T15:05:17.499Z,7.30
2018-07-03T15:07:47.219Z,8.08
2018-07-03T15:10:16.154Z,8.13
2018-07-03T15:12:45.012Z,8.08
2018-07-03T15:15:14.244Z,8.25
2018-07-03T15:17:43.199Z,7.70
2018-07-03T15:20:12.246Z,7.83
2018-07-03T15:22:41.219Z,8.28
2018-07-03T15:25:10.176Z,8.10
2018-07-03T15:27:39.064Z,7.85
2018-07-03T15:30:08.046Z,8.00
2018-07-03T15:32:37.154Z,8.03
2018-07-03T15:35:06.146Z,8.75
2018-07-03T15:37:35.219Z,8.58
2018-07-03T15:40:04.308Z,8.75
2018-07-03T15:42:34.539Z,8.33
2018-07-03T15:45:12.890Z,8.88
2018-07-03T15:47:47.358Z,8.08
2018-07-03T15:50:16.046Z,9.00
2018-07-03T15:52:44.686Z,8.58
2018-07-03T15:55:13.368Z,8.60
2018-07-03T15:57:42.002Z,9.20
2018-07-03T16:00:14.067Z,9.15
2018-07-03T16:02:58.452Z,8.85
2018-07-03T16:05:44.095Z,9.55
2018-07-03T16:09:06.639Z,9.35
2018-07-03T16:11:35.393Z,8.68
2018-07-03T16:14:04.121Z,9.93
2018-07-03T16:16:32.824Z,9.85
2018-07-03T16:19:07.076Z,10.05
2018-07-03T16:21:36.269Z,11.00
2018-07-03T16:24:05.358Z,10.05
2018-07-03T16:26:34.356Z,9.45
2018-07-03T16:29:04.532Z,9.13
2018-07-03T16:31:33.490Z,9.28
2018-07-03T16:34:02.486Z,9.50
2018-07-03T16:36:31.463Z,9.18
2018-07-03T16:39:00.451Z,9.15
2018-07-03T16:41:29.637Z,9.53
2018-07-03T16:43:58.403Z,9.78
2018-07-03T16:46:27.023Z,8.95
2018-07-03T16:48:55.688Z,9.55
2018-07-03T16:51:24.324Z,9.60
2018-07-03T16:53:53.216Z,10.00
2018-07-03T16:56:22.103Z,9.33
2018-07-03T16:58:51.051Z,10.05
2018-07-03T17:01:20.519Z,10.45
2018-07-03T17:03:49.211Z,10.38
2018-07-03T17:06:17.798Z,10.68
2018-07-03T17:08:46.403Z,11.38
2018-07-03T17:11:15.006Z,11.22
2018-07-03T17:13:43.756Z,14.15
2018-07-03T17:16:12.516Z,11.53
2018-07-03T17:19:50.345Z,11.65
2018-07-03T17:22:19.577Z,12.60
2018-07-03T17:24:48.322Z,12.75
2018-07-03T17:27:17.056Z,13.30
2018-07-03T17:29:45.703Z,12.50
2018-07-03T17:32:14.415Z,12.80
2018-07-03T17:34:43.664Z,12.28
2018-07-03T17:37:12.426Z,12.75
2018-07-03T17:39:52.218Z,12.63
2018-07-03T17:42:37.933Z,12.65
2018-07-03T17:45:49.494Z,12.58
2018-07-03T17:48:18.123Z,12.43
2018-07-03T17:50:46.751Z,12.45
2018-07-03T17:53:15.802Z,12.70
2018-07-03T17:55:44.743Z,13.15
2018-07-03T17:58:13.751Z,12.75
2018-07-03T18:00:48.168Z,12.95
2018-07-03T18:03:16.938Z,11.78
2018-07-03T18:05:45.559Z,12.30
2018-07-03T18:08:14.256Z,12.27
2018-07-03T18:10:43.908Z,12.70
2018-07-03T18:13:12.643Z,12.63
2018-07-03T18:15:41.270Z,13.22
2018-07-03T18:18:09.776Z,12.37
2018-07-03T18:20:38.412Z,12.47
2018-07-03T18:23:07.078Z,11.13
2018-07-03T18:25:36.149Z,12.60
2018-07-03T18:28:04.880Z,12.68
2018-07-03T18:30:33.569Z,12.47
2018-07-03T18:33:02.541Z,12.03
2018-07-03T18:35:31.556Z,12.50
2018-07-03T18:38:00.623Z,12.07
2018-07-03T18:40:29.555Z,12.63
2018-07-03T18:42:58.487Z,12.70
2018-07-03T18:45:27.254Z,12.20
2018-07-03T18:47:55.939Z,12.87
2018-07-03T18:50:25.588Z,12.60
2018-07-03T18:52:54.281Z,13.10
2018-07-03T18:55:23.045Z,13.17
2018-07-03T18:57:51.741Z,12.80
2018-07-03T19:00:20.401Z,13.13
2018-07-03T19:02:49.034Z,12.60
2018-07-03T19:05:18.203Z,12.10
2018-07-03T19:07:46.942Z,12.37
2018-07-03T19:10:15.470Z,12.37
2018-07-03T19:12:44.111Z,12.50
2018-07-03T19:15:12.989Z,13.43
2018-07-03T19:17:41.630Z,13.38
2018-07-03T19:20:10.877Z,13.50
2018-07-03T19:22:40.143Z,14.00
2018-07-03T19:25:09.899Z,12.30
2018-07-03T19:27:38.598Z,13.40
2018-07-03T19:30:07.486Z,13.53
2018-07-03T19:32:36.268Z,13.57
2018-07-03T19:35:05.092Z,13.97
2018-07-03T19:37:34.339Z,13.83
2018-07-03T19:40:04.114Z,14.07
2018-07-03T19:42:33.211Z,14.40
2018-07-03T19:45:02.222Z,13.20
2018-07-03T19:47:31.141Z,13.23
2018-07-03T19:50:00.136Z,13.00
2018-07-03T19:52:29.111Z,13.23
2018-07-03T19:54:57.749Z,13.87
2018-07-03T19:57:26.483Z,12.20
2018-07-03T19:59:55.313Z,12.03
2018-07-03T20:02:24.115Z,13.23
2018-07-03T20:04:52.831Z,13.77
2018-07-03T20:07:21.559Z,13.93
2018-07-03T20:09:50.284Z,14.60
2018-07-03T20:12:18.952Z,14.83
2018-07-03T20:14:47.626Z,14.50
2018-07-03T20:17:16.271Z,14.80
2018-07-03T20:19:44.933Z,14.70
2018-07-03T20:22:13.742Z,15.53
2018-07-03T20:24:42.480Z,14.90
2018-07-03T20:27:11.221Z,14.80
2018-07-03T20:29:39.934Z,15.13
2018-07-03T20:32:08.664Z,15.37
2018-07-03T20:34:37.304Z,14.90
2018-07-03T20:37:06.011Z,15.63
2018-07-03T20:39:34.737Z,14.77
2018-07-03T20:42:03.477Z,15.63
2018-07-03T20:44:32.134Z,14.80
2018-07-03T20:47:00.584Z,15.70
2018-07-03T20:49:29.197Z,15.33
2018-07-03T20:51:57.840Z,15.43
2018-07-03T20:54:26.464Z,14.73
2018-07-03T20:56:55.220Z,14.83
2018-07-03T20:59:23.889Z,13.83
2018-07-03T21:01:53.151Z,15.00
2018-07-03T21:04:21.918Z,14.33
2018-07-03T21:06:50.506Z,14.13
2018-07-03T21:09:20.204Z,14.50
2018-07-03T21:11:54.596Z,14.70
2018-07-03T21:14:23.595Z,14.03
2018-07-03T21:16:52.570Z,13.37
2018-07-03T21:19:23.518Z,13.30
2018-07-03T21:21:52.350Z,13.50
2018-07-03T21:24:21.096Z,14.03
2018-07-03T21:26:49.848Z,14.00
2018-07-03T21:29:18.586Z,14.90
2018-07-03T21:31:47.318Z,13.97
2018-07-03T21:34:15.994Z,14.13
2018-07-03T21:36:45.113Z,15.50
2018-07-03T21:39:13.841Z,14.90
2018-07-03T21:41:42.438Z,15.23
2018-07-03T21:44:10.950Z,14.60
2018-07-03T21:46:40.246Z,15.13
2018-07-03T21:49:08.874Z,14.77
2018-07-03T21:51:37.511Z,15.23
2018-07-03T21:54:06.173Z,15.00
2018-07-03T21:56:34.598Z,15.63
2018-07-03T21:59:03.301Z,15.30
2018-07-03T22:01:32.251Z,16.37
2018-07-03T22:04:01.681Z,17.13
2018-07-03T22:06:30.688Z,16.10
2018-07-03T22:09:00.288Z,16.17
2018-07-03T22:11:29.023Z,16.07
2018-07-03T22:13:57.754Z,16.47
2018-07-03T22:16:26.455Z,16.10
2018-07-03T22:18:55.134Z,16.47
2018-07-03T22:21:24.004Z,16.33
2018-07-03T22:23:52.973Z,16.80
2018-07-03T22:26:21.853Z,16.53
2018-07-03T22:28:50.788Z,17.73
2018-07-03T22:31:19.491Z,16.33
2018-07-03T22:33:48.179Z,16.20
2018-07-03T22:36:17.124Z,17.00
2018-07-03T22:38:45.924Z,17.03
2018-07-03T22:41:14.552Z,16.20
2018-07-03T22:43:43.266Z,17.07
2018-07-03T22:46:12.403Z,15.60
2018-07-03T22:48:41.061Z,15.27
2018-07-03T22:51:09.805Z,15.97
2018-07-03T22:53:38.698Z,16.00
2018-07-03T22:56:07.618Z,16.43
2018-07-03T22:58:36.688Z,16.70
2018-07-03T23:01:05.679Z,15.67
2018-07-03T23:03:34.667Z,16.27
2018-07-03T23:06:03.664Z,16.20
2018-07-03T23:08:32.708Z,16.43
2018-07-03T23:11:01.633Z,16.57
2018-07-03T23:13:30.411Z,16.33
2018-07-03T23:15:59.024Z,16.27
2018-07-03T23:18:27.601Z,16.63
2018-07-03T23:20:56.249Z,17.07
2018-07-03T23:23:25.668Z,17.47
2018-07-03T23:25:54.591Z,17.80
2018-07-03T23:28:24.031Z,17.93
2018-07-03T23:30:55.934Z,18.10
2018-07-03T23:33:24.901Z,18.27
2018-07-03T23:35:53.846Z,18.63
2018-07-03T23:38:22.769Z,17.47
2018-07-03T23:40:51.676Z,18.33
2018-07-03T23:43:21.229Z,18.30
2018-07-03T23:45:59.933Z,18.40
2018-07-03T23:48:45.338Z,17.67
2018-07-03T23:51:31.073Z,17.67
2018-07-03T23:54:16.737Z,18.07
2018-07-03T23:57:02.354Z,16.67
2018-07-03T23:59:47.789Z,17.33
